Time;durP1;ratioP1;P1;durP2;ratioP2;P2;SDS_P1;SDS_P2;PMS_P1;PMS_P2;Temp;Humidity;BMP_temperature;BMP_pressure;BME280_temperature;BME280_humidity;BME280_pressure;Samples;Min_cycle;Max_cycle;Signal;HPM_P1;HPM_P2
2021/11/23 00:00:42;;;;;;;13.93;10.70;;;;;;;-140.79;100.00;63287.88;4967548;28;20061;-65
2021/11/23 00:03:08;;;;;;;15.07;10.65;;;;;;;-140.79;100.00;63287.88;4982394;28;20058;-65
2021/11/23 00:05:33;;;;;;;13.68;10.55;;;;;;;-140.79;100.00;63287.88;4967901;28;20027;-65
2021/11/23 00:07:59;;;;;;;14.98;10.60;;;;;;;-140.79;100.00;63287.88;4967389;28;20038;-65
2021/11/23 00:10:25;;;;;;;12.50;10.52;;;;;;;-140.79;100.00;63287.88;4967275;28;20740;-66
2021/11/23 00:12:50;;;;;;;14.32;11.00;;;;;;;-140.79;100.00;63287.88;4982153;28;20413;-65
2021/11/23 00:15:15;;;;;;;13.38;10.70;;;;;;;-140.79;100.00;63287.88;4967774;28;20046;-65
2021/11/23 00:17:41;;;;;;;13.75;10.73;;;;;;;-140.79;100.00;63287.88;4967366;28;20031;-66
2021/11/23 00:20:07;;;;;;;13.15;10.15;;;;;;;-140.79;100.00;63287.88;4981801;28;20034;-65
2021/11/23 00:22:32;;;;;;;13.15;10.30;;;;;;;-140.79;100.00;63287.88;4967349;28;20038;-66
2021/11/23 00:24:59;;;;;;;14.45;11.20;;;;;;;-140.79;100.00;63287.88;4967029;28;20568;-66
2021/11/23 00:27:24;;;;;;;13.23;10.43;;;;;;;-140.79;100.00;63287.88;4967021;28;20573;-65
2021/11/23 00:29:50;;;;;;;13.95;10.65;;;;;;;-140.79;100.00;63287.88;4965717;28;20042;-65
2021/11/23 00:32:16;;;;;;;12.27;10.25;;;;;;;-140.79;100.00;63287.88;4965577;28;20019;-66
2021/11/23 00:34:41;;;;;;;13.00;10.93;;;;;;;-140.79;100.00;63287.88;4965576;28;20034;-66
2021/11/23 00:37:07;;;;;;;12.23;10.07;;;;;;;-140.79;100.00;63287.88;4967360;28;20027;-65
2021/11/23 00:39:33;;;;;;;14.75;10.73;;;;;;;-140.79;100.00;63287.88;4966912;28;20042;-65
2021/11/23 00:41:58;;;;;;;14.32;11.18;;;;;;;-140.79;100.00;63287.88;4981571;28;20618;-66
2021/11/23 00:44:24;;;;;;;14.07;10.65;;;;;;;-140.79;100.00;63287.88;4966778;28;20023;-66
2021/11/23 00:46:50;;;;;;;15.30;11.13;;;;;;;-140.79;100.00;63287.88;4966478;28;20026;-66
2021/11/23 00:49:15;;;;;;;13.52;11.07;;;;;;;-140.79;100.00;63287.88;4967053;28;20026;-66
2021/11/23 00:51:41;;;;;;;13.38;10.30;;;;;;;-140.79;100.00;63287.88;4965263;28;20022;-66
2021/11/23 00:54:06;;;;;;;14.25;11.27;;;;;;;-140.79;100.00;63287.88;4966279;28;20406;-66
2021/11/23 00:56:32;;;;;;;12.98;10.13;;;;;;;-140.79;100.00;63287.88;4966771;28;20022;-66
2021/11/23 00:58:57;;;;;;;13.95;10.93;;;;;;;-140.79;100.00;63287.88;4965107;28;20734;-66
2021/11/23 01:03:57;;;;;;;14.00;11.07;;;;;;;-140.79;100.00;63287.88;4863582;28;20062;-64
2021/11/23 01:06:24;;;;;;;12.65;10.38;;;;;;;-140.79;100.00;63287.88;4949048;28;20038;-64
2021/11/23 01:08:50;;;;;;;12.40;10.63;;;;;;;-140.79;100.00;63287.88;4966715;28;20038;-64
2021/11/23 01:11:16;;;;;;;13.80;10.65;;;;;;;-140.79;100.00;63287.88;4965972;28;20039;-64
2021/11/23 01:13:42;;;;;;;15.50;10.35;;;;;;;-140.79;100.00;63287.88;4966505;28;20039;-63
2021/11/23 01:16:07;;;;;;;14.15;11.52;;;;;;;-140.79;100.00;63287.88;4966344;28;20416;-63
2021/11/23 01:18:33;;;;;;;12.98;10.15;;;;;;;-140.79;100.00;63287.88;4966659;28;20427;-63
2021/11/23 01:21:02;;;;;;;12.85;10.43;;;;;;;-140.79;100.00;63287.88;4966336;28;20681;-63
2021/11/23 01:23:27;;;;;;;13.63;10.82;;;;;;;-140.79;100.00;63287.88;4964731;28;20093;-63
2021/11/23 01:25:53;;;;;;;13.65;10.75;;;;;;;-140.79;100.00;63287.88;4965319;28;20262;-63
2021/11/23 01:28:19;;;;;;;12.75;10.63;;;;;;;-140.79;100.00;63287.88;4965050;28;20045;-63
2021/11/23 01:30:44;;;;;;;12.80;10.43;;;;;;;-140.79;100.00;63287.88;4964768;28;20069;-64
2021/11/23 01:33:10;;;;;;;14.15;10.68;;;;;;;-140.79;100.00;63287.88;4946810;28;20484;-63
2021/11/23 01:35:35;;;;;;;14.43;11.20;;;;;;;-140.79;100.00;63287.88;4955939;28;20125;-63
2021/11/23 01:38:01;;;;;;;13.15;10.73;;;;;;;-140.79;100.00;63287.88;4946919;29;20027;-63
2021/11/23 01:40:26;;;;;;;14.23;10.95;;;;;;;-140.79;100.00;63287.88;4945541;29;20034;-63
2021/11/23 01:42:52;;;;;;;13.27;11.30;;;;;;;-140.79;100.00;63287.88;4946606;29;20039;-64
2021/11/23 01:45:17;;;;;;;12.88;10.30;;;;;;;-140.79;100.00;63287.88;4946579;29;20046;-63
2021/11/23 01:47:43;;;;;;;12.43;10.57;;;;;;;-140.79;100.00;63287.88;4946943;28;20039;-63
2021/11/23 01:50:09;;;;;;;13.30;10.80;;;;;;;-140.79;100.00;63287.88;4945417;29;20039;-62
2021/11/23 01:52:35;;;;;;;13.55;10.85;;;;;;;-140.79;100.00;63287.88;4945802;29;20089;-63
2021/11/23 01:55:02;;;;;;;13.27;10.40;;;;;;;-140.79;100.00;63287.88;4945526;29;20788;-63
2021/11/23 01:57:27;;;;;;;13.02;10.45;;;;;;;-140.79;100.00;63287.88;4946380;28;20033;-62
2021/11/23 01:59:53;;;;;;;13.55;10.77;;;;;;;-140.79;100.00;63287.88;4945188;29;20031;-64
2021/11/23 02:02:18;;;;;;;13.88;10.93;;;;;;;-140.79;100.00;63287.88;4946495;28;20425;-63
2021/11/23 02:04:45;;;;;;;12.65;10.55;;;;;;;-140.79;100.00;63287.88;4946433;29;20023;-63
2021/11/23 02:07:13;;;;;;;13.48;10.63;;;;;;;-140.79;100.00;63287.88;4947556;28;20039;-63
2021/11/23 02:09:38;;;;;;;13.23;10.48;;;;;;;-140.79;100.00;63287.88;4949110;29;20027;-64
2021/11/23 02:12:04;;;;;;;13.85;10.45;;;;;;;-140.79;100.00;63287.88;4950447;28;20038;-63
2021/11/23 02:14:30;;;;;;;15.00;10.63;;;;;;;-140.79;100.00;63287.88;4948969;29;20039;-63
2021/11/23 02:16:55;;;;;;;13.30;10.98;;;;;;;-140.79;100.00;63287.88;4949246;29;20489;-63
2021/11/23 02:19:21;;;;;;;12.45;9.88;;;;;;;-140.79;100.00;63287.88;4949548;29;20560;-63
2021/11/23 02:21:47;;;;;;;13.85;11.48;;;;;;;-140.79;100.00;63287.88;4950229;28;20061;-65
2021/11/23 02:24:12;;;;;;;14.98;11.60;;;;;;;-140.79;100.00;63287.88;4950363;28;20818;-63
2021/11/23 02:26:38;;;;;;;13.63;10.77;;;;;;;-140.79;100.00;63287.88;4950129;28;20027;-63
2021/11/23 02:29:03;;;;;;;13.63;10.98;;;;;;;-140.79;100.00;63287.88;4948622;29;20027;-63
2021/11/23 02:31:29;;;;;;;13.27;10.40;;;;;;;-140.79;100.00;63287.88;4948631;29;20782;-64
2021/11/23 02:33:54;;;;;;;14.70;11.10;;;;;;;-140.79;100.00;63287.88;4950199;29;20035;-63
2021/11/23 02:36:20;;;;;;;14.55;10.73;;;;;;;-140.79;100.00;63287.88;4948659;29;20030;-63
2021/11/23 02:38:48;;;;;;;13.35;10.63;;;;;;;-140.79;100.00;63287.88;4932751;29;20039;-63
2021/11/23 02:41:14;;;;;;;13.90;10.80;;;;;;;-140.79;100.00;63287.88;4948668;29;20134;-64
2021/11/23 02:43:40;;;;;;;13.77;10.60;;;;;;;-140.79;100.00;63287.88;4948285;29;20399;-64
2021/11/23 02:46:06;;;;;;;14.35;10.93;;;;;;;-140.79;100.00;63287.88;4949748;28;20122;-63
2021/11/23 02:48:32;;;;;;;13.65;10.73;;;;;;;-140.79;100.00;63287.88;4950110;28;20031;-63
2021/11/23 02:51:16;;;;;;;14.60;11.18;;;;;;;-140.79;100.00;63287.88;4949504;28;20031;-63
2021/11/23 02:53:46;;;;;;;14.32;11.07;;;;;;;-140.79;100.00;63287.88;4949713;28;20495;-63
2021/11/23 02:56:12;;;;;;;13.98;11.43;;;;;;;-140.79;100.00;63287.88;4949490;28;20051;-63
2021/11/23 02:58:38;;;;;;;12.43;10.15;;;;;;;-140.79;100.00;63287.88;4949624;28;20027;-63
2021/11/23 03:01:06;;;;;;;14.60;10.93;;;;;;;-140.79;100.00;63287.88;4947943;29;20643;-65
2021/11/23 03:03:31;;;;;;;14.30;11.18;;;;;;;-140.79;100.00;63287.88;4948017;29;20488;-64
2021/11/23 03:05:57;;;;;;;14.60;11.07;;;;;;;-140.79;100.00;63287.88;4949594;28;20524;-64
2021/11/23 03:08:23;;;;;;;12.80;10.80;;;;;;;-140.79;100.00;63287.88;4947942;29;20027;-64
2021/11/23 03:10:48;;;;;;;12.25;10.30;;;;;;;-140.79;100.00;63287.88;4949233;28;20460;-64
2021/11/23 03:13:14;;;;;;;12.48;10.65;;;;;;;-140.79;100.00;63287.88;4947913;29;20090;-64
2021/11/23 03:15:39;;;;;;;12.43;10.45;;;;;;;-140.79;100.00;63287.88;4947832;29;20504;-64
2021/11/23 03:18:06;;;;;;;14.18;10.65;;;;;;;-140.79;100.00;63287.88;4949126;28;20034;-64
2021/11/23 03:20:31;;;;;;;14.52;10.68;;;;;;;-140.79;100.00;63287.88;4949134;29;20070;-64
2021/11/23 03:22:57;;;;;;;13.68;10.70;;;;;;;-140.79;100.00;63287.88;4948917;28;20019;-63
2021/11/23 03:25:23;;;;;;;13.75;10.70;;;;;;;-140.79;100.00;63287.88;4947802;29;20490;-64
2021/11/23 03:27:49;;;;;;;13.07;10.63;;;;;;;-140.79;100.00;63287.88;4947548;29;20031;-64
2021/11/23 03:30:17;;;;;;;14.63;10.75;;;;;;;-140.79;100.00;63287.88;4949121;28;20027;-63
2021/11/23 03:32:42;;;;;;;13.18;10.38;;;;;;;-140.79;100.00;63287.88;4947803;29;20045;-63
2021/11/23 03:35:08;;;;;;;12.05;10.18;;;;;;;-140.79;100.00;63287.88;4947277;29;20530;-64
2021/11/23 03:37:34;;;;;;;12.65;10.20;;;;;;;-140.79;100.00;63287.88;4947698;28;20054;-64
2021/11/23 03:39:59;;;;;;;14.68;10.93;;;;;;;-140.79;100.00;63287.88;4947336;29;20031;-64
2021/11/23 03:42:25;;;;;;;13.50;10.45;;;;;;;-140.79;100.00;63287.88;4948605;28;20026;-64
2021/11/23 03:44:58;;;;;;;13.98;11.10;;;;;;;-140.79;100.00;63287.88;4947328;29;20027;-64
2021/11/23 03:47:23;;;;;;;13.75;11.02;;;;;;;-140.79;100.00;63287.88;4948850;29;20027;-64
2021/11/23 03:49:49;;;;;;;12.50;10.35;;;;;;;-140.79;100.00;63287.88;4931104;29;20038;-64
2021/11/23 03:52:14;;;;;;;13.00;10.45;;;;;;;-140.79;100.00;63287.88;4947278;29;20039;-64
2021/11/23 03:54:40;;;;;;;13.45;11.10;;;;;;;-140.79;100.00;63287.88;4948273;29;20094;-64
2021/11/23 03:57:05;;;;;;;12.18;10.48;;;;;;;-140.79;100.00;63287.88;4948490;29;20121;-64
2021/11/23 03:59:31;;;;;;;12.20;10.20;;;;;;;-140.79;100.00;63287.88;4948473;28;20178;-64
2021/11/23 04:01:56;;;;;;;14.07;10.80;;;;;;;-140.79;100.00;63287.88;4947152;29;20587;-64
2021/11/23 04:04:22;;;;;;;11.68;9.52;;;;;;;-140.79;100.00;63287.88;4948301;28;20051;-64
2021/11/23 04:06:48;;;;;;;14.38;10.50;;;;;;;-140.79;100.00;63287.88;4947166;29;20030;-64
2021/11/23 04:09:13;;;;;;;13.45;10.45;;;;;;;-140.79;100.00;63287.88;4948531;28;20031;-63
2021/11/23 04:11:39;;;;;;;12.80;10.50;;;;;;;-140.79;100.00;63287.88;4947995;28;20038;-64
2021/11/23 04:14:05;;;;;;;14.80;10.85;;;;;;;-140.79;100.00;63287.88;4948486;28;20035;-64
2021/11/23 04:16:30;;;;;;;13.52;10.23;;;;;;;-140.79;100.00;63287.88;4948238;28;20035;-63
2021/11/23 04:18:56;;;;;;;11.88;9.93;;;;;;;-140.79;100.00;63287.88;4948416;29;20086;-63
2021/11/23 04:21:21;;;;;;;14.25;10.93;;;;;;;-140.79;100.00;63287.88;4948380;28;20054;-64
2021/11/23 04:23:47;;;;;;;12.27;10.52;;;;;;;-140.79;100.00;63287.88;4948463;28;20505;-63
2021/11/23 04:26:12;;;;;;;13.32;10.13;;;;;;;-140.79;100.00;63287.88;4946618;29;20027;-64
2021/11/23 04:28:38;;;;;;;13.25;10.15;;;;;;;-140.79;100.00;63287.88;4946231;28;20039;-64
2021/11/23 04:31:03;;;;;;;12.82;9.82;;;;;;;-140.79;100.00;63287.88;4947581;28;20059;-64
2021/11/23 04:33:29;;;;;;;12.50;10.45;;;;;;;-140.79;100.00;63287.88;4947913;28;20047;-64
2021/11/23 04:35:54;;;;;;;12.18;10.13;;;;;;;-140.79;100.00;63287.88;4947987;29;20035;-63
2021/11/23 04:38:20;;;;;;;13.25;10.20;;;;;;;-140.79;100.00;63287.88;4947841;28;20037;-63
2021/11/23 04:40:45;;;;;;;13.68;9.85;;;;;;;-140.79;100.00;63287.88;4947660;29;20037;-64
2021/11/23 04:43:11;;;;;;;12.20;9.63;;;;;;;-140.79;100.00;63287.88;4947849;28;20130;-64
2021/11/23 04:45:37;;;;;;;13.52;10.75;;;;;;;-140.79;100.00;63287.88;4947467;28;20823;-64
2021/11/23 04:48:03;;;;;;;12.73;10.02;;;;;;;-140.79;100.00;63287.88;4947839;28;20438;-64
2021/11/23 04:50:28;;;;;;;12.98;9.88;;;;;;;-140.79;100.00;63287.88;4947734;28;20170;-64
2021/11/23 04:52:54;;;;;;;12.80;10.88;;;;;;;-140.79;100.00;63287.88;4947866;28;20122;-63
2021/11/23 04:55:19;;;;;;;10.52;9.43;;;;;;;-140.79;100.00;63287.88;4947712;28;20121;-64
2021/11/23 04:57:45;;;;;;;13.32;10.73;;;;;;;-140.79;100.00;63287.88;4947693;28;20635;-63
2021/11/23 05:00:14;;;;;;;13.63;11.23;;;;;;;-140.79;100.00;63287.88;4947433;28;20073;-64
2021/11/23 05:02:39;;;;;;;12.77;10.00;;;;;;;-140.79;100.00;63287.88;4946021;29;20051;-64
2021/11/23 05:05:05;;;;;;;12.48;10.18;;;;;;;-140.79;100.00;63287.88;4947324;28;20484;-63
2021/11/23 05:07:31;;;;;;;12.93;10.18;;;;;;;-140.79;100.00;63287.88;4947848;28;20062;-64
2021/11/23 05:09:56;;;;;;;13.27;10.23;;;;;;;-140.79;100.00;63287.88;4947612;29;20070;-64
2021/11/23 05:12:22;;;;;;;15.10;10.48;;;;;;;-140.79;100.00;63287.88;4946728;29;20042;-63
2021/11/23 05:14:47;;;;;;;13.25;10.13;;;;;;;-140.79;100.00;63287.88;4947373;29;20501;-64
2021/11/23 05:17:13;;;;;;;13.82;10.40;;;;;;;-140.79;100.00;63287.88;4947269;28;20031;-64
2021/11/23 05:19:39;;;;;;;11.93;10.02;;;;;;;-140.79;100.00;63287.88;4947167;29;20023;-64
2021/11/23 05:22:04;;;;;;;12.23;9.85;;;;;;;-140.79;100.00;63287.88;4947272;29;20062;-64
2021/11/23 05:24:30;;;;;;;11.88;9.55;;;;;;;-140.79;100.00;63287.88;4947595;28;20019;-64
2021/11/23 05:26:56;;;;;;;11.98;9.45;;;;;;;-140.79;100.00;63287.88;4945557;29;20505;-63
2021/11/23 05:29:21;;;;;;;11.70;9.27;;;;;;;-140.79;100.00;63287.88;4947005;28;20038;-63
2021/11/23 05:31:47;;;;;;;13.27;10.45;;;;;;;-140.79;100.00;63287.88;4945678;29;20039;-64
2021/11/23 05:34:12;;;;;;;13.43;10.15;;;;;;;-140.79;100.00;63287.88;4947006;28;20126;-64
2021/11/23 05:36:38;;;;;;;12.63;9.95;;;;;;;-140.79;100.00;63287.88;4945557;29;20022;-64
2021/11/23 05:39:04;;;;;;;11.98;9.93;;;;;;;-140.79;100.00;63287.88;4930074;29;20041;-63
2021/11/23 05:41:30;;;;;;;11.13;9.45;;;;;;;-140.79;100.00;63287.88;4945930;28;20425;-65
2021/11/23 05:43:55;;;;;;;11.57;9.73;;;;;;;-140.79;100.00;63287.88;4946596;28;20032;-63
2021/11/23 05:46:21;;;;;;;11.07;9.38;;;;;;;-140.79;100.00;63287.88;4945634;28;20034;-64
2021/11/23 05:48:46;;;;;;;12.95;10.07;;;;;;;-140.79;100.00;63287.88;4946908;28;20027;-64
2021/11/23 05:51:12;;;;;;;13.38;10.20;;;;;;;-140.79;100.00;63287.88;4968388;28;20027;-65
2021/11/23 05:53:39;;;;;;;12.07;10.40;;;;;;;-140.79;100.00;63287.88;4984521;28;20018;-65
2021/11/23 05:56:05;;;;;;;12.15;10.35;;;;;;;-140.79;100.00;63287.88;4983426;28;20141;-64
2021/11/23 05:58:31;;;;;;;11.23;9.35;;;;;;;-140.79;100.00;63287.88;4984516;28;20405;-65
2021/11/23 06:00:56;;;;;;;11.73;9.88;;;;;;;-140.79;100.00;63287.88;4971345;28;20038;-64
2021/11/23 06:03:22;;;;;;;13.25;10.43;;;;;;;-140.79;100.00;63287.88;4948252;28;20038;-64
2021/11/23 06:05:47;;;;;;;11.27;9.27;;;;;;;-140.79;100.00;63287.88;4984933;28;20025;-64
2021/11/23 06:08:13;;;;;;;12.38;9.98;;;;;;;-140.79;100.00;63287.88;4984053;28;20026;-65
2021/11/23 06:10:38;;;;;;;10.98;9.70;;;;;;;-140.79;100.00;63287.88;4984391;28;20415;-65
2021/11/23 06:13:05;;;;;;;12.75;9.82;;;;;;;-140.79;100.00;63287.88;4980700;28;20026;-66
2021/11/23 06:15:31;;;;;;;11.50;9.73;;;;;;;-140.79;100.00;63287.88;4981650;28;20120;-64
2021/11/23 06:18:02;;;;;;;10.55;9.45;;;;;;;-140.79;100.00;63287.88;4984462;28;20496;-64
2021/11/23 06:20:30;;;;;;;12.90;9.93;;;;;;;-140.79;100.00;63287.88;4984777;28;20041;-64
2021/11/23 06:22:59;;;;;;;10.90;9.57;;;;;;;-140.79;100.00;63287.88;4983026;28;20026;-64
2021/11/23 06:25:25;;;;;;;10.13;8.83;;;;;;;-140.79;100.00;63287.88;4983747;28;20362;-66
2021/11/23 06:27:50;;;;;;;11.25;8.70;;;;;;;-140.79;100.00;63287.88;4985274;28;20360;-65
2021/11/23 06:30:16;;;;;;;10.90;8.50;;;;;;;-140.79;100.00;63287.88;4950783;28;20045;-66
2021/11/23 06:32:41;;;;;;;12.38;9.15;;;;;;;-140.79;100.00;63287.88;4983928;28;20046;-68
2021/11/23 06:35:07;;;;;;;11.02;9.18;;;;;;;-140.79;100.00;63287.88;4984743;28;20030;-69
2021/11/23 06:37:33;;;;;;;10.25;8.73;;;;;;;-140.79;100.00;63287.88;4984061;28;20023;-65
2021/11/23 06:39:58;;;;;;;9.73;8.57;;;;;;;-140.79;100.00;63287.88;4983312;28;20076;-65
2021/11/23 06:42:24;;;;;;;10.48;9.10;;;;;;;-140.79;100.00;63287.88;4984117;28;20499;-67
2021/11/23 06:44:49;;;;;;;9.98;8.63;;;;;;;-140.79;100.00;63287.88;4983443;28;20114;-70
2021/11/23 06:47:15;;;;;;;10.57;8.57;;;;;;;-140.79;100.00;63287.88;4980967;28;20030;-70
2021/11/23 06:49:40;;;;;;;10.32;8.45;;;;;;;-140.79;100.00;63287.88;4984500;28;20381;-66
2021/11/23 06:52:06;;;;;;;10.80;8.32;;;;;;;-140.79;100.00;63287.88;4982406;28;20532;-65
2021/11/23 06:54:32;;;;;;;10.95;8.25;;;;;;;-140.79;100.00;63287.88;4987866;28;20452;-66
2021/11/23 06:56:57;;;;;;;10.10;8.75;;;;;;;-140.79;100.00;63287.88;4988037;28;20033;-66
2021/11/23 06:59:23;;;;;;;11.02;8.57;;;;;;;-140.79;100.00;63287.88;4988318;28;20022;-66
2021/11/23 07:01:49;;;;;;;10.63;8.73;;;;;;;-140.79;100.00;63287.88;4986235;28;20408;-66
2021/11/23 07:04:14;;;;;;;10.10;8.60;;;;;;;-140.79;100.00;63287.88;4987796;28;20117;-66
2021/11/23 07:06:40;;;;;;;10.82;8.48;;;;;;;-140.79;100.00;63287.88;4987735;28;20114;-66
2021/11/23 07:09:06;;;;;;;11.30;8.55;;;;;;;-140.79;100.00;63287.88;4987660;28;20057;-66
2021/11/23 07:11:32;;;;;;;11.73;8.55;;;;;;;-140.79;100.00;63287.88;4984660;28;20034;-66
2021/11/23 07:13:57;;;;;;;11.02;8.63;;;;;;;-140.79;100.00;63287.88;4987692;28;20029;-67
2021/11/23 07:16:23;;;;;;;9.15;8.00;;;;;;;-140.79;100.00;63287.88;4986327;28;20109;-64
2021/11/23 07:18:48;;;;;;;10.25;8.32;;;;;;;-140.79;100.00;63287.88;4986300;28;20694;-63
2021/11/23 07:21:14;;;;;;;10.73;8.27;;;;;;;-140.79;100.00;63287.88;4982920;28;20129;-65
2021/11/23 07:23:39;;;;;;;9.50;7.97;;;;;;;-140.79;100.00;63287.88;4985012;28;20045;-66
2021/11/23 07:26:05;;;;;;;9.35;8.43;;;;;;;-140.79;100.00;63287.88;4985889;28;20137;-64
2021/11/23 07:28:30;;;;;;;9.15;7.70;;;;;;;-140.79;100.00;63287.88;4986656;28;20029;-65
2021/11/23 07:30:57;;;;;;;9.60;8.13;;;;;;;-140.79;100.00;63287.88;4981484;28;20034;-65
2021/11/23 07:33:23;;;;;;;10.57;8.32;;;;;;;-140.79;100.00;63287.88;4986355;28;20109;-64
2021/11/23 07:35:48;;;;;;;10.45;8.23;;;;;;;-140.79;100.00;63287.88;4985429;28;20091;-64
2021/11/23 07:38:14;;;;;;;11.07;8.48;;;;;;;-140.79;100.00;63287.88;4985743;28;20493;-74
2021/11/23 07:40:40;;;;;;;8.55;7.22;;;;;;;-140.79;100.00;63287.88;4984087;28;20026;-64
2021/11/23 07:43:05;;;;;;;9.45;7.78;;;;;;;-140.79;100.00;63287.88;4987189;28;20022;-64
2021/11/23 07:45:31;;;;;;;10.13;8.05;;;;;;;-140.79;100.00;63287.88;4986691;28;20034;-67
2021/11/23 07:47:56;;;;;;;9.95;7.65;;;;;;;-140.79;100.00;63287.88;4987280;28;20033;-67
2021/11/23 07:50:22;;;;;;;9.43;6.93;;;;;;;-140.79;100.00;63287.88;4987266;28;20080;-67
2021/11/23 07:52:47;;;;;;;9.75;7.90;;;;;;;-140.79;100.00;63287.88;4985770;28;20064;-67
2021/11/23 07:55:13;;;;;;;9.50;7.68;;;;;;;-140.79;100.00;63287.88;4984154;28;20486;-67
2021/11/23 07:57:39;;;;;;;9.07;7.78;;;;;;;-140.79;100.00;63287.88;4985859;28;20014;-67
2021/11/23 08:00:07;;;;;;;8.57;7.35;;;;;;;-140.79;100.00;63287.88;4987037;28;20045;-67
2021/11/23 08:02:33;;;;;;;10.95;7.90;;;;;;;-140.79;100.00;63287.88;4987129;28;20743;-67
2021/11/23 08:04:59;;;;;;;9.68;7.30;;;;;;;-140.79;100.00;63287.88;4986318;28;20025;-67
2021/11/23 08:07:28;;;;;;;9.57;7.30;;;;;;;-140.79;100.00;63287.88;4987086;28;20026;-68
2021/11/23 08:09:53;;;;;;;9.23;7.70;;;;;;;-140.79;100.00;63287.88;4986669;28;20019;-67
2021/11/23 08:12:19;;;;;;;11.02;7.45;;;;;;;-140.79;100.00;63287.88;4984368;28;20297;-67
2021/11/23 08:14:45;;;;;;;8.05;7.25;;;;;;;-140.79;100.00;63287.88;4984255;28;20037;-67
2021/11/23 08:17:10;;;;;;;8.23;7.05;;;;;;;-140.79;100.00;63287.88;4986689;28;20492;-67
2021/11/23 08:19:36;;;;;;;9.65;7.60;;;;;;;-140.79;100.00;63287.88;4985227;28;20022;-67
2021/11/23 08:22:01;;;;;;;9.68;7.57;;;;;;;-140.79;100.00;63287.88;4986715;28;20023;-68
2021/11/23 08:24:27;;;;;;;8.57;6.97;;;;;;;-140.79;100.00;63287.88;4984696;28;20049;-66
2021/11/23 08:26:56;;;;;;;9.40;7.32;;;;;;;-140.79;100.00;63287.88;4986843;28;20088;-67
2021/11/23 08:29:22;;;;;;;9.13;7.05;;;;;;;-140.79;100.00;63287.88;4972441;28;20048;-67
2021/11/23 08:31:47;;;;;;;9.07;7.10;;;;;;;-140.79;100.00;63287.88;4985376;28;20504;-67
2021/11/23 08:34:13;;;;;;;8.85;7.20;;;;;;;-140.79;100.00;63287.88;4985364;28;20644;-65
2021/11/23 08:36:39;;;;;;;10.30;7.35;;;;;;;-140.79;100.00;63287.88;4985067;28;20092;-66
2021/11/23 08:39:05;;;;;;;7.47;6.68;;;;;;;-140.79;100.00;63287.88;4969226;28;20022;-67
2021/11/23 08:41:30;;;;;;;8.80;7.13;;;;;;;-140.79;100.00;63287.88;4968989;28;20026;-66
2021/11/23 08:43:56;;;;;;;8.85;6.95;;;;;;;-140.79;100.00;63287.88;4986091;28;20604;-67
2021/11/23 08:46:21;;;;;;;9.02;7.38;;;;;;;-140.79;100.00;63287.88;4985073;28;20034;-67
2021/11/23 08:48:47;;;;;;;9.25;7.45;;;;;;;-140.79;100.00;63287.88;4983405;28;20026;-67
2021/11/23 08:51:16;;;;;;;8.90;7.03;;;;;;;-140.79;100.00;63287.88;4984606;28;20042;-67
2021/11/23 08:53:42;;;;;;;10.10;7.00;;;;;;;-140.79;100.00;63287.88;4984998;28;20029;-67
2021/11/23 08:56:08;;;;;;;8.80;6.85;;;;;;;-140.79;100.00;63287.88;4986149;28;20030;-67
2021/11/23 08:58:34;;;;;;;7.70;6.57;;;;;;;-140.79;100.00;63287.88;4968145;28;20060;-64
2021/11/23 09:00:59;;;;;;;7.90;6.57;;;;;;;-140.79;100.00;63287.88;4984529;28;20026;-65
2021/11/23 09:03:25;;;;;;;8.70;6.70;;;;;;;-140.79;100.00;63287.88;4982078;28;20051;-67
2021/11/23 09:05:52;;;;;;;7.78;6.70;;;;;;;-140.79;100.00;63287.88;4986123;28;20030;-66
2021/11/23 09:08:18;;;;;;;8.23;6.38;;;;;;;-140.79;100.00;63287.88;4985092;28;20046;-66
2021/11/23 09:10:43;;;;;;;7.72;6.40;;;;;;;-140.79;100.00;63287.88;4985535;28;20473;-66
2021/11/23 09:13:10;;;;;;;9.23;6.75;;;;;;;-140.79;100.00;63287.88;4984871;28;20034;-66
2021/11/23 09:15:36;;;;;;;7.95;6.50;;;;;;;-140.79;100.00;63287.88;4982945;28;20030;-66
2021/11/23 09:18:03;;;;;;;7.68;6.13;;;;;;;-140.79;100.00;63287.88;4968151;28;20109;-66
2021/11/23 09:20:34;;;;;;;9.20;6.32;;;;;;;-140.79;100.00;63287.88;4985110;28;20022;-67
2021/11/23 09:23:02;;;;;;;8.18;6.50;;;;;;;-140.79;100.00;63287.88;4985084;28;20503;-67
2021/11/23 09:25:28;;;;;;;7.13;6.00;;;;;;;-140.79;100.00;63287.88;4985555;28;20636;-67
2021/11/23 09:27:59;;;;;;;7.75;6.05;;;;;;;-140.79;100.00;63287.88;4984659;28;20102;-66
2021/11/23 09:30:25;;;;;;;7.53;6.45;;;;;;;-140.79;100.00;63287.88;4983269;28;20018;-67
2021/11/23 09:32:51;;;;;;;7.88;6.18;;;;;;;-140.79;100.00;63287.88;4983840;28;20029;-66
2021/11/23 09:35:17;;;;;;;8.40;6.47;;;;;;;-140.79;100.00;63287.88;4984998;28;20030;-67
2021/11/23 09:37:43;;;;;;;7.38;5.93;;;;;;;-140.79;100.00;63287.88;4985059;28;20103;-65
2021/11/23 09:40:09;;;;;;;8.70;6.25;;;;;;;-140.79;100.00;63287.88;4967570;28;20118;-65
2021/11/23 09:42:35;;;;;;;9.55;6.03;;;;;;;-140.79;100.00;63287.88;4982553;28;20802;-67
2021/11/23 09:45:03;;;;;;;7.93;6.15;;;;;;;-140.79;100.00;63287.88;4983388;28;20081;-65
2021/11/23 09:47:29;;;;;;;7.57;6.03;;;;;;;-140.79;100.00;63287.88;4983365;28;20026;-66
2021/11/23 09:49:57;;;;;;;8.20;6.13;;;;;;;-140.79;100.00;63287.88;4984873;28;20088;-67
2021/11/23 09:52:23;;;;;;;8.18;6.03;;;;;;;-140.79;100.00;63287.88;4984891;28;20049;-67
2021/11/23 09:54:48;;;;;;;7.40;5.75;;;;;;;-140.79;100.00;63287.88;4983073;28;20496;-66
2021/11/23 09:57:14;;;;;;;7.63;5.88;;;;;;;-140.79;100.00;63287.88;4984845;28;20033;-66
2021/11/23 09:59:42;;;;;;;7.32;5.80;;;;;;;-140.79;100.00;63287.88;4964807;28;20030;-66
2021/11/23 10:02:08;;;;;;;8.00;6.30;;;;;;;-140.79;100.00;63287.88;4980384;28;20019;-64
2021/11/23 10:04:36;;;;;;;8.77;5.93;;;;;;;-140.79;100.00;63287.88;4983717;28;20027;-64
2021/11/23 10:07:09;;;;;;;8.82;6.05;;;;;;;-140.79;100.00;63287.88;4985602;28;20033;-68
2021/11/23 10:09:40;;;;;;;7.68;5.78;;;;;;;-140.79;100.00;63287.88;4984079;28;20595;-65
2021/11/23 10:12:14;;;;;;;10.55;6.88;;;;;;;-140.79;100.00;63287.88;4984264;28;20171;-67
2021/11/23 10:14:42;;;;;;;9.75;6.45;;;;;;;-140.79;100.00;63287.88;4983113;28;20054;-68
2021/11/23 10:17:26;;;;;;;8.30;6.30;;;;;;;-140.79;100.00;63287.88;4982768;28;20057;-65
2021/11/23 10:19:52;;;;;;;7.95;6.45;;;;;;;-140.79;100.00;63287.88;4982817;28;20053;-65
2021/11/23 10:22:33;;;;;;;10.52;7.22;;;;;;;-140.79;100.00;63287.88;4985014;28;20026;-62
2021/11/23 10:25:01;;;;;;;8.80;6.53;;;;;;;-140.79;100.00;63287.88;4985206;28;20448;-63
2021/11/23 10:27:26;;;;;;;8.23;6.50;;;;;;;-140.79;100.00;63287.88;4986632;28;20161;-62
2021/11/23 10:29:52;;;;;;;8.82;6.95;;;;;;;-140.79;100.00;63287.88;4989195;28;20420;-62
2021/11/23 10:32:17;;;;;;;7.95;6.20;;;;;;;-140.79;100.00;63287.88;4971068;28;20117;-63
2021/11/23 10:34:44;;;;;;;9.32;6.03;;;;;;;-140.79;100.00;63287.88;4988028;28;20022;-63
2021/11/23 10:37:09;;;;;;;9.57;6.90;;;;;;;-140.79;100.00;63287.88;4988429;28;20030;-64
2021/11/23 10:39:35;;;;;;;10.20;6.95;;;;;;;-140.79;100.00;63287.88;4967948;28;20078;-62
2021/11/23 10:42:01;;;;;;;9.50;6.60;;;;;;;-140.79;100.00;63287.88;4987276;28;20026;-63
2021/11/23 10:44:31;;;;;;;11.50;8.07;;;;;;;-140.79;100.00;63287.88;4987636;28;20038;-64
2021/11/23 10:46:58;;;;;;;12.05;7.72;;;;;;;-140.79;100.00;63287.88;4988955;28;20420;-63
2021/11/23 10:49:31;;;;;;;10.00;7.50;;;;;;;-140.79;100.00;63287.88;4987343;28;20061;-69
2021/11/23 10:51:59;;;;;;;11.05;7.22;;;;;;;-140.79;100.00;63287.88;4987963;28;20038;-63
2021/11/23 10:54:25;;;;;;;9.82;7.07;;;;;;;-140.79;100.00;63287.88;4987604;28;20515;-64
2021/11/23 10:56:58;;;;;;;10.40;7.20;;;;;;;-140.79;100.00;63287.88;4988277;28;20030;-68